Time;durP1;ratioP1;P1;durP2;ratioP2;P2;SDS_P1;SDS_P2;PMS_P1;PMS_P2;Temp;Humidity;BMP_temperature;BMP_pressure;BME280_temperature;BME280_humidity;BME280_pressure;Samples;Min_cycle;Max_cycle;Signal;HPM_P1;HPM_P2
2020/12/27 00:02:10;;;;;;;6.88;2.40;;;10.60;82.10;;;;;;5024234;28;20184;-94
2020/12/27 00:04:39;;;;;;;4.75;1.90;;;10.60;82.10;;;;;;5007021;28;20053;-88
2020/12/27 00:07:07;;;;;;;5.40;2.25;;;10.60;82.10;;;;;;4989228;28;20101;-89
2020/12/27 00:09:35;;;;;;;8.30;2.30;;;10.60;82.10;;;;;;5021366;28;20038;-90
2020/12/27 00:12:01;;;;;;;9.35;2.70;;;10.60;82.20;;;;;;5021667;28;20063;-88
2020/12/27 00:14:27;;;;;;;9.43;2.45;;;10.60;82.20;;;;;;5004996;28;20045;-90
2020/12/27 00:16:53;;;;;;;6.60;1.83;;;10.60;82.20;;;;;;5022507;28;20026;-89
2020/12/27 00:19:19;;;;;;;10.23;2.83;;;10.60;82.20;;;;;;5005582;28;20030;-89
2020/12/27 00:21:45;;;;;;;9.80;2.65;;;10.60;82.20;;;;;;5005518;28;20034;-90
2020/12/27 00:24:11;;;;;;;8.95;2.97;;;10.50;82.00;;;;;;5003924;28;20064;-87
2020/12/27 00:26:37;;;;;;;12.30;2.38;;;10.60;82.20;;;;;;5019192;28;20343;-89
2020/12/27 00:29:04;;;;;;;6.97;2.15;;;10.60;82.30;;;;;;5020131;28;20037;-88
2020/12/27 00:31:30;;;;;;;9.40;2.83;;;10.50;82.00;;;;;;5004694;28;20116;-89
2020/12/27 00:33:57;;;;;;;10.20;2.65;;;10.50;82.10;;;;;;4985717;28;20249;-89
2020/12/27 00:36:23;;;;;;;8.68;2.72;;;10.50;82.10;;;;;;5016366;28;20256;-88
2020/12/27 00:38:49;;;;;;;11.43;3.53;;;10.50;82.10;;;;;;5016672;28;20114;-90
2020/12/27 00:41:22;;;;;;;8.73;2.58;;;10.50;82.10;;;;;;5004067;28;20041;-89
2020/12/27 00:43:49;;;;;;;6.53;2.50;;;10.50;82.10;;;;;;5001794;28;20027;-89
2020/12/27 00:46:17;;;;;;;8.70;3.05;;;10.40;81.90;;;;;;5016394;28;20038;-86
2020/12/27 00:48:43;;;;;;;7.30;2.63;;;10.40;82.00;;;;;;5014766;28;20041;-87
2020/12/27 00:51:09;;;;;;;9.52;3.33;;;10.40;82.00;;;;;;5001341;28;20033;-86
2020/12/27 00:53:36;;;;;;;9.40;2.85;;;10.40;82.00;;;;;;5017489;28;20053;-86
2020/12/27 00:56:02;;;;;;;5.60;2.40;;;10.40;82.00;;;;;;5001489;28;20474;-88
2020/12/27 00:58:31;;;;;;;8.57;2.83;;;10.40;82.00;;;;;;5003546;28;20036;-87
2020/12/27 01:00:59;;;;;;;7.93;2.92;;;10.40;82.10;;;;;;5001740;28;20552;-85
2020/12/27 01:03:25;;;;;;;9.85;2.85;;;10.40;82.10;;;;;;4998019;28;20029;-84
2020/12/27 01:06:12;;;;;;;8.98;2.85;;;10.40;82.10;;;;;;5023886;28;20457;-82
2020/12/27 01:08:38;;;;;;;8.68;2.70;;;10.40;82.10;;;;;;4992010;28;20385;-82
2020/12/27 01:11:06;;;;;;;12.00;3.05;;;10.30;82.50;;;;;;5006784;28;20481;-82
2020/12/27 01:13:32;;;;;;;9.43;3.58;;;10.30;82.00;;;;;;5009073;28;20097;-84
2020/12/27 01:15:59;;;;;;;7.07;2.83;;;10.30;82.00;;;;;;5014087;28;20442;-85
2020/12/27 01:18:28;;;;;;;8.15;2.72;;;10.30;82.00;;;;;;5011401;28;20034;-82
2020/12/27 01:20:56;;;;;;;11.02;2.45;;;10.30;82.00;;;;;;4990182;28;20030;-82
2020/12/27 01:23:22;;;;;;;10.90;3.53;;;10.30;82.00;;;;;;5007644;28;20108;-82
2020/12/27 01:25:48;;;;;;;7.30;2.78;;;10.30;82.00;;;;;;5007031;28;20477;-84
2020/12/27 01:28:15;;;;;;;11.35;3.45;;;10.30;82.00;;;;;;5012803;28;20045;-83
2020/12/27 01:30:44;;;;;;;5.95;2.60;;;10.30;82.00;;;;;;4992827;28;20041;-80
2020/12/27 01:33:17;;;;;;;7.13;1.95;;;10.30;82.00;;;;;;4990139;28;20448;-81
2020/12/27 01:35:55;;;;;;;11.90;3.03;;;10.30;82.00;;;;;;4988088;28;20449;-81
2020/12/27 01:38:21;;;;;;;6.38;2.20;;;10.30;82.00;;;;;;4989069;28;20204;-80
2020/12/27 01:40:48;;;;;;;7.07;3.38;;;10.30;82.00;;;;;;5005622;28;20084;-81
2020/12/27 01:43:17;;;;;;;6.80;2.90;;;10.20;81.90;;;;;;4990941;28;20025;-82
2020/12/27 01:45:45;;;;;;;10.20;3.05;;;10.20;81.90;;;;;;4992343;28;20085;-82
2020/12/27 01:48:15;;;;;;;6.78;2.78;;;10.20;81.90;;;;;;4992231;28;20030;-80
2020/12/27 01:50:51;;;;;;;10.98;3.35;;;10.20;81.90;;;;;;5007800;28;20038;-82
2020/12/27 01:53:33;;;;;;;6.97;2.70;;;10.20;81.90;;;;;;4993446;28;20489;-81
2020/12/27 01:56:02;;;;;;;10.27;2.85;;;10.20;81.90;;;;;;5006470;28;20344;-81
2020/12/27 01:58:39;;;;;;;4.35;2.33;;;10.20;82.00;;;;;;4993223;28;20177;-83
2020/12/27 02:01:10;;;;;;;7.78;2.60;;;10.20;82.00;;;;;;5012880;28;20363;-83
2020/12/27 02:03:55;;;;;;;7.45;3.30;;;10.20;82.00;;;;;;5014854;28;20095;-85
2020/12/27 02:06:29;;;;;;;7.45;3.30;;;10.20;82.00;;;;;;5015883;28;20117;-86
2020/12/27 02:09:05;;;;;;;7.35;2.90;;;10.20;82.00;;;;;;5015185;28;20033;-85
2020/12/27 02:11:44;;;;;;;10.10;2.75;;;10.20;82.00;;;;;;4999791;28;20056;-85
2020/12/27 02:14:11;;;;;;;8.88;3.20;;;10.20;82.00;;;;;;5015078;28;20033;-86
2020/12/27 02:16:39;;;;;;;8.73;3.33;;;10.20;82.00;;;;;;4999565;28;20030;-88
2020/12/27 02:19:14;;;;;;;7.13;2.60;;;10.20;82.10;;;;;;5030124;28;20076;-83
2020/12/27 02:21:44;;;;;;;6.30;2.65;;;10.20;82.10;;;;;;5008745;28;20053;-86
2020/12/27 02:24:23;;;;;;;9.52;2.97;;;10.20;82.10;;;;;;5012928;28;20034;-80
2020/12/27 02:27:01;;;;;;;7.80;2.75;;;10.20;82.10;;;;;;5033814;28;20041;-85
2020/12/27 02:29:28;;;;;;;13.60;3.17;;;10.20;82.10;;;;;;5031150;28;20034;-83
2020/12/27 02:31:55;;;;;;;14.05;3.15;;;10.20;82.10;;;;;;4988199;28;20600;-84
2020/12/27 02:34:22;;;;;;;9.15;3.60;;;10.10;81.90;;;;;;5011056;28;20054;-84
2020/12/27 02:36:49;;;;;;;15.02;3.92;;;10.10;81.90;;;;;;4977881;28;20030;-84
2020/12/27 02:39:17;;;;;;;10.75;3.83;;;10.10;82.00;;;;;;5005419;28;20038;-83
2020/12/27 02:41:43;;;;;;;9.40;3.20;;;10.10;82.00;;;;;;4997516;28;20148;-83
2020/12/27 02:44:16;;;;;;;15.05;3.85;;;10.10;82.00;;;;;;5012229;28;20037;-83
2020/12/27 02:46:58;;;;;;;11.73;3.65;;;10.10;82.00;;;;;;5007440;28;20047;-81
2020/12/27 02:49:42;;;;;;;11.07;3.38;;;10.10;82.00;;;;;;5007866;28;20057;-83
2020/12/27 02:52:10;;;;;;;20.35;4.22;;;10.10;82.00;;;;;;5017567;28;20049;-83
2020/12/27 02:54:37;;;;;;;14.27;3.92;;;10.10;82.00;;;;;;5003349;28;20036;-83
2020/12/27 02:57:07;;;;;;;14.48;4.03;;;10.10;82.00;;;;;;5027265;28;20022;-83
2020/12/27 02:59:33;;;;;;;16.67;4.05;;;10.10;82.00;;;;;;5018368;28;20030;-81
2020/12/27 03:02:15;;;;;;;10.95;3.60;;;10.10;82.10;;;;;;5037677;28;20113;-84
2020/12/27 03:05:00;;;;;;;13.00;4.20;;;10.10;82.10;;;;;;5037284;28;20021;-85
2020/12/27 03:07:26;;;;;;;10.75;3.42;;;10.00;81.90;;;;;;5053092;28;20033;-82
2020/12/27 03:10:07;;;;;;;19.73;4.50;;;10.10;82.10;;;;;;5022165;28;20065;-83
2020/12/27 03:12:39;;;;;;;16.08;4.38;;;10.10;82.10;;;;;;5036744;28;20078;-82
2020/12/27 03:15:06;;;;;;;17.52;4.38;;;10.10;82.10;;;;;;5020998;28;20048;-84
2020/12/27 03:18:07;;;;;;;12.45;3.63;;;10.10;82.10;;;;;;4958132;28;20024;-83
2020/12/27 03:21:05;;;;;;;15.32;4.50;;;10.10;82.10;;;;;;5004715;28;20042;-84
2020/12/27 03:23:31;;;;;;;13.80;3.90;;;10.10;82.10;;;;;;5036951;28;20017;-84
2020/12/27 03:26:05;;;;;;;11.20;3.83;;;10.10;82.10;;;;;;5021168;28;20078;-84
2020/12/27 03:28:31;;;;;;;12.27;4.13;;;10.10;82.10;;;;;;5036635;28;20070;-86
2020/12/27 03:31:02;;;;;;;14.07;4.30;;;10.10;82.00;;;;;;5020453;28;20212;-86
2020/12/27 03:33:33;;;;;;;13.00;4.13;;;10.00;81.90;;;;;;5020932;28;20093;-86
2020/12/27 03:36:02;;;;;;;15.23;3.50;;;10.00;81.90;;;;;;5036779;28;20137;-86
2020/12/27 03:38:37;;;;;;;8.38;3.35;;;10.00;81.90;;;;;;5035709;28;20018;-85
2020/12/27 03:41:08;;;;;;;11.75;4.53;;;10.00;81.90;;;;;;5036143;28;20034;-84
2020/12/27 03:43:51;;;;;;;14.73;3.80;;;10.00;81.90;;;;;;5036511;28;20053;-85
2020/12/27 03:46:30;;;;;;;12.68;4.45;;;9.90;82.30;;;;;;5053167;28;20066;-86
2020/12/27 03:49:17;;;;;;;9.88;3.25;;;9.90;81.80;;;;;;5036235;28;20049;-87
2020/12/27 03:52:03;;;;;;;12.90;3.80;;;9.90;82.30;;;;;;5050274;28;20042;-87
2020/12/27 03:54:49;;;;;;;14.70;3.92;;;9.80;81.70;;;;;;5036489;28;20036;-87
2020/12/27 03:57:37;;;;;;;12.98;3.65;;;9.90;81.90;;;;;;5034772;28;20029;-85
2020/12/27 04:00:19;;;;;;;15.88;3.97;;;9.80;81.80;;;;;;5020364;28;20018;-82
2020/12/27 04:02:56;;;;;;;9.57;3.17;;;9.80;82.30;;;;;;5034877;28;20209;-83
2020/12/27 04:05:23;;;;;;;9.73;3.08;;;9.70;81.60;;;;;;5017546;28;20037;-83
2020/12/27 04:07:49;;;;;;;13.30;4.03;;;9.70;81.70;;;;;;5034535;28;20082;-83
2020/12/27 04:10:18;;;;;;;14.23;4.20;;;9.70;81.70;;;;;;5033687;28;20026;-82
2020/12/27 04:12:46;;;;;;;15.98;3.70;;;9.70;81.70;;;;;;5034809;28;20174;-83
2020/12/27 04:15:13;;;;;;;10.55;3.20;;;9.70;81.80;;;;;;5012189;28;20072;-84
2020/12/27 04:17:59;;;;;;;9.65;3.40;;;9.70;81.80;;;;;;5004423;28;20049;-83
2020/12/27 04:20:33;;;;;;;;;;;9.70;81.80;;;;;;5016357;28;20065;-83
2020/12/27 04:23:00;;;;;;;11.93;3.70;;;9.70;81.80;;;;;;5015990;28;20325;-84
2020/12/27 04:25:28;;;;;;;15.35;3.97;;;9.70;81.70;;;;;;5018127;28;20144;-84
2020/12/27 04:27:54;;;;;;;10.43;3.70;;;9.60;81.60;;;;;;5018631;28;20045;-87
2020/12/27 04:30:20;;;;;;;8.73;2.85;;;9.70;81.80;;;;;;5021382;28;20045;-87
2020/12/27 04:33:06;;;;;;;9.32;2.78;;;9.60;81.60;;;;;;5019879;28;20057;-86
2020/12/27 04:35:50;;;;;;;12.73;3.10;;;9.60;81.60;;;;;;5014255;28;20109;-86
2020/12/27 04:38:16;;;;;;;10.48;3.83;;;9.60;81.70;;;;;;5020399;28;20030;-86
2020/12/27 04:40:43;;;;;;;8.85;2.67;;;9.60;81.60;;;;;;5021065;28;20094;-90
2020/12/27 04:43:12;;;;;;;9.50;2.75;;;9.60;81.60;;;;;;5022998;28;20038;-86
2020/12/27 04:45:48;;;;;;;7.88;2.83;;;9.60;81.70;;;;;;5020814;28;20520;-87
2020/12/27 04:48:30;;;;;;;5.70;2.75;;;9.50;81.50;;;;;;5003423;28;20044;-86
2020/12/27 04:51:25;;;;;;;9.32;3.22;;;9.50;81.50;;;;;;5023582;28;20038;-86
2020/12/27 04:54:08;;;;;;;7.43;2.47;;;9.50;81.50;;;;;;5020285;28;20048;-87
2020/12/27 04:56:50;;;;;;;8.25;2.97;;;9.50;81.50;;;;;;5020131;28;20125;-87
2020/12/27 04:59:19;;;;;;;8.82;3.05;;;9.50;81.50;;;;;;5019513;28;20034;-87
2020/12/27 05:01:51;;;;;;;7.88;2.83;;;9.50;81.50;;;;;;5002611;28;20026;-86
2020/12/27 05:04:25;;;;;;;;;;;9.40;81.40;;;;;;5019343;28;20049;-87
2020/12/27 05:07:00;;;;;;;10.38;3.25;;;9.50;81.60;;;;;;5019536;28;19997;-89
2020/12/27 05:09:56;;;;;;;7.20;2.83;;;9.40;81.40;;;;;;5012202;28;20152;-88
2020/12/27 05:12:23;;;;;;;9.40;2.80;;;9.40;81.40;;;;;;5003832;28;20037;-92
2020/12/27 05:14:50;;;;;;;7.55;2.45;;;9.40;81.50;;;;;;5002389;28;20069;-91
2020/12/27 05:17:20;;;;;;;8.13;2.33;;;9.40;81.50;;;;;;5001223;28;20050;-86
2020/12/27 05:19:54;;;;;;;6.53;3.25;;;9.40;81.50;;;;;;5000892;28;20035;-88
2020/12/27 05:22:21;;;;;;;6.63;2.90;;;9.40;81.50;;;;;;4983738;28;20343;-87
2020/12/27 05:25:07;;;;;;;7.15;3.20;;;9.40;81.50;;;;;;5014915;28;20120;-88
2020/12/27 05:28:06;;;;;;;7.20;2.45;;;9.40;81.50;;;;;;4998639;28;20038;-87
2020/12/27 05:30:50;;;;;;;8.80;2.50;;;9.30;81.30;;;;;;5001638;28;20115;-87
2020/12/27 05:33:43;;;;;;;6.93;2.67;;;9.30;81.30;;;;;;5015965;28;20034;-88
2020/12/27 05:36:33;;;;;;;11.13;2.57;;;9.30;81.30;;;;;;5001443;28;20030;-89
2020/12/27 05:39:18;;;;;;;13.70;3.53;;;9.30;81.30;;;;;;5000803;28;20034;-87
2020/12/27 05:42:06;;;;;;;5.50;2.05;;;9.20;81.10;;;;;;4985957;28;20049;-87
2020/12/27 05:44:40;;;;;;;12.18;3.17;;;9.20;81.20;;;;;;5000269;28;20038;-88
2020/12/27 05:47:11;;;;;;;5.88;2.47;;;9.20;81.20;;;;;;5000507;28;20069;-89
2020/12/27 05:49:38;;;;;;;11.38;3.08;;;9.20;81.20;;;;;;5014619;28;20144;-88
2020/12/27 05:52:17;;;;;;;10.32;3.22;;;9.10;81.10;;;;;;4983200;28;20117;-85
2020/12/27 05:55:04;;;;;;;10.00;2.60;;;9.10;81.10;;;;;;5000794;28;20062;-87
2020/12/27 05:57:40;;;;;;;10.65;3.60;;;9.10;81.20;;;;;;4982852;28;20556;-86
2020/12/27 06:00:06;;;;;;;10.93;3.05;;;9.10;81.20;;;;;;5015069;28;20204;-85
2020/12/27 06:02:59;;;;;;;13.10;3.33;;;9.10;81.20;;;;;;5014669;28;20125;-85
2020/12/27 06:05:49;;;;;;;8.27;3.22;;;9.00;81.10;;;;;;5003836;28;20183;-86
2020/12/27 06:08:41;;;;;;;13.55;3.13;;;9.00;81.10;;;;;;4997319;28;20029;-87
2020/12/27 06:11:36;;;;;;;8.32;2.72;;;9.00;81.10;;;;;;4997341;28;20037;-83
2020/12/27 06:14:15;;;;;;;8.25;2.60;;;9.00;81.20;;;;;;4997371;28;20145;-84
2020/12/27 06:17:14;;;;;;;11.52;2.63;;;8.90;81.00;;;;;;5012002;28;20061;-84
2020/12/27 06:20:20;;;;;;;12.93;3.05;;;8.90;81.00;;;;;;4960972;28;20058;-84
2020/12/27 06:22:52;;;;;;;6.50;2.47;;;8.90;81.00;;;;;;4953326;28;20030;-86
2020/12/27 06:25:33;;;;;;;9.63;3.10;;;8.90;81.00;;;;;;4982905;28;20072;-84
2020/12/27 06:28:00;;;;;;;10.75;2.95;;;8.90;81.10;;;;;;4999649;28;20021;-85
2020/12/27 06:30:35;;;;;;;8.65;2.30;;;8.90;81.10;;;;;;4998318;28;20030;-86
2020/12/27 06:33:37;;;;;;;5.03;2.25;;;8.90;81.20;;;;;;5012121;28;20068;-86
2020/12/27 06:36:27;;;;;;;8.75;2.95;;;8.90;81.10;;;;;;5018800;28;20039;-86
2020/12/27 06:38:54;;;;;;;10.40;3.58;;;8.90;81.10;;;;;;5019651;28;20121;-85
2020/12/27 06:41:22;;;;;;;5.00;2.28;;;8.90;81.10;;;;;;5002730;28;20544;-84
2020/12/27 06:44:07;;;;;;;7.68;3.05;;;8.90;81.10;;;;;;5021561;28;20069;-88
2020/12/27 06:46:47;;;;;;;6.95;2.47;;;8.90;81.10;;;;;;5019393;28;20777;-87
2020/12/27 06:49:25;;;;;;;11.30;2.90;;;8.90;81.10;;;;;;5009349;28;20054;-82
2020/12/27 06:52:17;;;;;;;5.97;2.33;;;8.80;80.90;;;;;;5019530;28;20032;-84
2020/12/27 06:55:03;;;;;;;5.18;2.30;;;8.90;81.20;;;;;;5000846;28;20054;-82
2020/12/27 06:57:40;;;;;;;5.20;2.72;;;8.80;81.00;;;;;;4997856;28;20098;-83
2020/12/27 07:00:29;;;;;;;8.48;3.03;;;8.80;81.00;;;;;;5013268;28;20040;-91
2020/12/27 07:03:11;;;;;;;8.10;2.90;;;8.80;81.00;;;;;;5022019;28;20073;-92
2020/12/27 07:05:41;;;;;;;9.10;2.65;;;8.80;81.10;;;;;;4987287;28;20046;-86
2020/12/27 07:08:10;;;;;;;8.63;2.22;;;8.80;81.10;;;;;;5004935;28;20022;-89
2020/12/27 07:10:42;;;;;;;8.68;2.60;;;8.80;81.10;;;;;;5006089;28;20030;-89
2020/12/27 07:13:10;;;;;;;6.20;2.75;;;8.80;81.10;;;;;;5014722;28;20068;-89
2020/12/27 07:15:52;;;;;;;6.32;2.20;;;8.80;81.10;;;;;;5017020;28;20026;-82
2020/12/27 07:18:22;;;;;;;5.47;2.35;;;8.80;81.20;;;;;;5004290;28;20032;-85
2020/12/27 07:20:56;;;;;;;4.13;1.85;;;8.70;81.00;;;;;;4993713;28;20117;-91
2020/12/27 07:23:29;;;;;;;4.75;2.30;;;8.70;81.10;;;;;;5014601;28;20095;-86
2020/12/27 07:25:58;;;;;;;9.13;2.50;;;8.70;81.10;;;;;;5001639;28;20148;-86
2020/12/27 07:28:25;;;;;;;4.50;1.83;;;8.70;81.20;;;;;;5016118;28;20065;-85
2020/12/27 07:30:56;;;;;;;3.88;2.00;;;8.70;81.20;;;;;;5001134;28;20033;-87
2020/12/27 07:33:33;;;;;;;6.10;1.98;;;8.70;81.30;;;;;;4996455;28;20084;-83
2020/12/27 07:36:00;;;;;;;6.82;2.70;;;8.60;81.10;;;;;;4992509;28;20026;-83
2020/12/27 07:38:52;;;;;;;2.88;1.63;;;8.70;81.30;;;;;;5011667;28;20038;-82
2020/12/27 07:41:26;;;;;;;5.13;2.78;;;8.60;81.20;;;;;;4996212;28;20030;-84
2020/12/27 07:43:53;;;;;;;3.30;1.48;;;8.60;81.20;;;;;;5011110;28;20030;-80
2020/12/27 07:46:20;;;;;;;3.78;1.80;;;8.60;81.20;;;;;;4999259;28;20030;-85
2020/12/27 07:48:48;;;;;;;3.22;1.70;;;8.60;81.20;;;;;;5000567;28;20460;-90
2020/12/27 07:51:17;;;;;;;7.80;2.30;;;8.60;81.30;;;;;;5019468;28;20030;-88
2020/12/27 07:53:54;;;;;;;6.35;2.15;;;8.60;81.30;;;;;;5019441;28;20033;-86
2020/12/27 07:56:22;;;;;;;5.60;2.00;;;8.50;81.20;;;;;;5018476;28;20089;-88
2020/12/27 07:58:50;;;;;;;3.22;1.75;;;8.50;81.70;;;;;;5016884;28;20022;-86
2020/12/27 08:01:20;;;;;;;1.92;1.27;;;8.50;81.20;;;;;;5036868;28;20149;-90
2020/12/27 08:03:52;;;;;;;6.10;1.83;;;8.60;81.40;;;;;;5020978;28;20064;-90
2020/12/27 08:06:18;;;;;;;8.38;2.15;;;8.50;81.30;;;;;;5019389;28;20421;-88
2020/12/27 08:08:44;;;;;;;5.15;1.90;;;8.50;81.80;;;;;;5018816;28;20065;-89
2020/12/27 08:11:24;;;;;;;3.58;1.70;;;8.50;81.30;;;;;;5018923;28;20056;-88
2020/12/27 08:14:00;;;;;;;1.98;1.40;;;8.50;81.30;;;;;;5017610;28;20129;-85
2020/12/27 08:16:27;;;;;;;7.25;1.70;;;8.50;81.30;;;;;;5015771;28;20026;-85
2020/12/27 08:19:08;;;;;;;2.47;1.52;;;8.40;81.10;;;;;;5032436;28;20026;-86
2020/12/27 08:21:36;;;;;;;4.05;1.38;;;8.40;81.20;;;;;;5010747;28;20036;-86
2020/12/27 08:24:06;;;;;;;4.70;1.52;;;8.40;81.20;;;;;;4998559;28;20120;-87
2020/12/27 08:26:36;;;;;;;1.55;1.27;;;8.40;81.20;;;;;;5016394;28;20061;-86
2020/12/27 08:29:17;;;;;;;5.68;2.00;;;8.40;81.20;;;;;;5013448;28;20428;-82
2020/12/27 08:31:48;;;;;;;5.35;2.50;;;8.40;81.30;;;;;;5012054;28;20041;-88
2020/12/27 08:34:15;;;;;;;4.32;1.80;;;8.40;81.30;;;;;;5018202;28;20030;-86
2020/12/27 08:36:46;;;;;;;2.58;1.55;;;8.40;81.30;;;;;;5011839;28;20128;-81
2020/12/27 08:39:36;;;;;;;5.60;1.67;;;8.30;81.10;;;;;;5010081;28;20026;-86
2020/12/27 08:42:08;;;;;;;5.72;1.70;;;8.30;81.20;;;;;;4998064;28;20092;-85
2020/12/27 08:44:38;;;;;;;3.20;1.80;;;8.30;81.20;;;;;;5004071;28;20478;-89
2020/12/27 08:47:09;;;;;;;2.55;1.48;;;8.30;81.20;;;;;;5001162;28;20065;-85
2020/12/27 08:49:38;;;;;;;4.07;1.70;;;8.30;81.20;;;;;;5012190;28;20066;-94
2020/12/27 08:52:19;;;;;;;7.05;1.77;;;8.30;81.20;;;;;;4988358;28;20027;-83
2020/12/27 08:54:49;;;;;;;4.15;1.83;;;8.20;81.10;;;;;;5005666;28;20030;-84
2020/12/27 08:57:17;;;;;;;3.35;1.73;;;8.30;81.30;;;;;;4995774;28;20027;-89
2020/12/27 09:00:15;;;;;;;5.60;2.50;;;8.20;81.10;;;;;;5001046;28;20038;-87
2020/12/27 09:02:42;;;;;;;3.42;2.00;;;8.30;81.40;;;;;;5013211;28;20041;-89
2020/12/27 09:05:13;;;;;;;5.20;2.25;;;8.30;81.30;;;;;;5001339;28;20080;-80
2020/12/27 09:07:43;;;;;;;4.93;2.10;;;8.20;81.20;;;;;;4991542;28;20038;-79
2020/12/27 09:10:10;;;;;;;3.55;2.10;;;8.20;81.50;;;;;;5005349;28;20553;-79
2020/12/27 09:12:38;;;;;;;6.13;2.45;;;8.30;81.90;;;;;;5018397;28;20030;-78
2020/12/27 09:15:23;;;;;;;31.58;10.55;;;8.40;82.10;;;;;;5001137;28;20031;-78
2020/12/27 09:18:26;;;;;;;30.65;9.23;;;8.60;82.60;;;;;;5004181;28;20300;-85
2020/12/27 09:20:58;;;;;;;23.00;7.10;;;8.70;82.50;;;;;;4998793;28;20041;-85
2020/12/27 09:23:24;;;;;;;19.08;7.03;;;8.80;82.30;;;;;;5014497;28;20437;-82
2020/12/27 09:26:03;;;;;;;21.42;8.48;;;8.90;82.30;;;;;;5011553;28;20042;-81
2020/12/27 09:28:31;;;;;;;18.25;5.88;;;8.90;82.20;;;;;;5008144;28;20057;-80
2020/12/27 09:31:08;;;;;;;15.55;7.00;;;8.90;82.10;;;;;;5002808;28;20034;-81
2020/12/27 09:33:37;;;;;;;21.50;7.13;;;8.90;82.70;;;;;;5019738;28;20030;-82
2020/12/27 09:36:05;;;;;;;20.27;6.47;;;8.90;82.10;;;;;;5015097;28;20034;-84
2020/12/27 09:38:43;;;;;;;16.45;6.30;;;8.80;82.00;;;;;;5001614;28;20053;-92
2020/12/27 09:41:14;;;;;;;15.63;5.30;;;8.80;82.60;;;;;;4998595;28;20029;-87
2020/12/27 09:43:58;;;;;;;19.70;7.88;;;8.80;82.10;;;;;;5013919;28;20033;-83
2020/12/27 09:46:46;;;;;;;14.55;6.22;;;8.70;81.90;;;;;;5006377;28;20038;-81
2020/12/27 09:49:29;;;;;;;16.95;5.40;;;8.70;82.00;;;;;;5015271;28;20474;-79
2020/12/27 09:52:02;;;;;;;14.52;5.25;;;8.60;81.80;;;;;;5007723;28;20087;-80
2020/12/27 09:54:32;;;;;;;16.73;5.68;;;8.60;81.80;;;;;;5006666;28;20030;-84
2020/12/27 09:57:08;;;;;;;11.18;5.32;;;8.60;81.80;;;;;;4988202;28;20082;-81
2020/12/27 09:59:35;;;;;;;16.30;5.32;;;8.50;81.70;;;;;;5005686;28;20137;-81
2020/12/27 10:02:01;;;;;;;11.52;4.50;;;8.50;81.70;;;;;;5004467;28;20029;-82
2020/12/27 10:04:27;;;;;;;15.73;5.28;;;8.50;81.70;;;;;;5004221;28;20052;-82
2020/12/27 10:06:53;;;;;;;10.02;4.93;;;8.50;81.70;;;;;;4991518;28;20563;-82
2020/12/27 10:09:19;;;;;;;11.98;4.53;;;8.50;81.70;;;;;;5005690;28;20100;-79
2020/12/27 10:11:45;;;;;;;13.98;5.30;;;8.40;81.60;;;;;;5012049;28;20386;-81
2020/12/27 10:14:10;;;;;;;9.80;5.18;;;8.40;81.60;;;;;;5008201;28;20109;-81
2020/12/27 10:16:36;;;;;;;12.45;4.28;;;8.40;81.60;;;;;;5008920;28;20129;-82
2020/12/27 10:19:02;;;;;;;13.57;4.35;;;8.40;81.50;;;;;;5007501;28;20026;-80
2020/12/27 10:21:28;;;;;;;9.85;4.88;;;8.40;81.50;;;;;;4990817;28;20038;-81
2020/12/27 10:23:54;;;;;;;22.38;7.18;;;8.30;81.30;;;;;;5006702;28;20041;-83
2020/12/27 10:26:20;;;;;;;11.73;6.07;;;8.30;81.40;;;;;;5014416;28;20093;-83
2020/12/27 10:28:47;;;;;;;17.42;6.10;;;8.40;81.60;;;;;;5010747;28;20034;-82
2020/12/27 10:31:13;;;;;;;16.05;6.63;;;8.30;81.40;;;;;;5007170;28;20049;-82
2020/12/27 10:33:40;;;;;;;12.35;6.60;;;8.30;81.40;;;;;;5013387;28;20379;-87
2020/12/27 10:36:06;;;;;;;11.25;6.72;;;8.30;81.30;;;;;;5013603;28;20064;-83
2020/12/27 10:38:32;;;;;;;21.27;6.55;;;8.40;81.50;;;;;;5011168;28;20541;-81
2020/12/27 10:41:01;;;;;;;11.13;5.72;;;8.30;81.30;;;;;;5005851;28;20125;-82
2020/12/27 10:43:27;;;;;;;13.73;5.47;;;8.30;81.30;;;;;;4991385;28;20189;-81
2020/12/27 10:46:02;;;;;;;14.40;6.30;;;8.30;81.30;;;;;;4991003;28;20468;-82
2020/12/27 10:48:28;;;;;;;14.20;5.72;;;8.40;81.50;;;;;;4974577;28;20118;-82
2020/12/27 10:50:54;;;;;;;15.30;6.22;;;8.40;81.40;;;;;;4991633;28;20043;-82
2020/12/27 10:53:20;;;;;;;24.95;10.30;;;8.30;81.20;;;;;;4987787;28;20033;-77
2020/12/27 10:55:49;;;;;;;22.58;9.85;;;8.40;81.50;;;;;;5007521;28;20053;-81
2020/12/27 10:58:16;;;;;;;22.80;9.88;;;8.40;81.90;;;;;;5005123;28;20041;-79
2020/12/27 11:00:43;;;;;;;26.90;11.20;;;8.50;82.00;;;;;;5005040;28;20484;-79
2020/12/27 11:03:10;;;;;;;24.75;9.40;;;8.60;82.10;;;;;;4987015;28;20058;-80
2020/12/27 11:05:36;;;;;;;20.77;10.43;;;8.60;81.90;;;;;;5004083;28;20377;-80
2020/12/27 11:08:02;;;;;;;18.13;9.18;;;8.60;81.80;;;;;;5003940;28;20931;-80
2020/12/27 11:10:28;;;;;;;19.45;8.85;;;8.70;81.90;;;;;;5005613;28;20056;-79
2020/12/27 11:12:54;;;;;;;21.52;8.73;;;8.70;81.80;;;;;;5006846;28;20034;-81
2020/12/27 11:15:20;;;;;;;16.92;8.48;;;8.70;81.80;;;;;;5007149;28;20179;-79
2020/12/27 11:17:46;;;;;;;20.85;8.20;;;8.70;81.80;;;;;;4990528;28;20125;-81
2020/12/27 11:20:13;;;;;;;21.13;7.70;;;8.70;81.80;;;;;;5006970;28;20397;-79
2020/12/27 11:22:41;;;;;;;19.13;7.80;;;8.70;81.70;;;;;;4990029;28;20038;-80
2020/12/27 11:25:08;;;;;;;12.40;6.88;;;8.60;81.60;;;;;;5005893;28;20148;-79
2020/12/27 11:27:34;;;;;;;12.57;6.50;;;8.60;81.60;;;;;;5008614;28;20038;-82
2020/12/27 11:30:00;;;;;;;23.00;7.82;;;8.60;81.60;;;;;;4992062;28;20046;-79
2020/12/27 11:32:28;;;;;;;16.63;6.68;;;8.60;81.50;;;;;;5006544;28;20053;-79
2020/12/27 11:34:54;;;;;;;14.90;6.15;;;8.60;81.50;;;;;;5006162;28;20048;-79
2020/12/27 11:37:20;;;;;;;22.73;7.40;;;8.60;81.50;;;;;;4992002;28;20030;-79
2020/12/27 11:39:46;;;;;;;13.43;6.43;;;8.60;81.50;;;;;;5009468;28;20029;-82
2020/12/27 11:42:12;;;;;;;13.80;5.80;;;8.60;81.50;;;;;;5016797;28;20041;-82
2020/12/27 11:44:38;;;;;;;14.27;6.13;;;8.60;81.50;;;;;;4995810;28;20037;-82
2020/12/27 11:47:05;;;;;;;16.27;6.78;;;8.60;81.50;;;;;;5012739;28;20040;-81
2020/12/27 11:49:31;;;;;;;13.45;5.78;;;8.50;81.40;;;;;;4991710;28;20046;-81
2020/12/27 11:51:57;;;;;;;14.02;5.65;;;8.50;81.40;;;;;;5011129;28;20066;-84
2020/12/27 11:54:23;;;;;;;14.63;5.88;;;8.50;81.30;;;;;;5027256;28;20036;-81
2020/12/27 11:56:56;;;;;;;15.00;5.80;;;8.50;81.30;;;;;;5013016;28;20107;-83
2020/12/27 11:59:23;;;;;;;12.82;5.60;;;8.60;81.40;;;;;;5028711;28;20065;-82
2020/12/27 12:01:49;;;;;;;12.63;4.97;;;8.50;81.30;;;;;;5011417;28;20026;-82
2020/12/27 12:04:15;;;;;;;10.55;5.07;;;8.60;81.40;;;;;;5029049;28;20042;-82
2020/12/27 12:06:42;;;;;;;12.90;6.45;;;8.50;81.20;;;;;;5015072;28;20041;-84
2020/12/27 12:09:09;;;;;;;17.63;6.97;;;8.50;81.20;;;;;;4999501;28;20038;-84
2020/12/27 12:11:40;;;;;;;15.00;6.63;;;8.50;81.20;;;;;;4998437;28;20038;-84
2020/12/27 12:14:06;;;;;;;14.65;5.82;;;8.50;81.10;;;;;;5016201;28;20041;-84
2020/12/27 12:16:33;;;;;;;8.52;4.45;;;8.50;81.10;;;;;;5014994;28;20041;-84
2020/12/27 12:19:01;;;;;;;13.77;5.55;;;8.50;81.10;;;;;;4997717;28;20049;-82
2020/12/27 12:21:27;;;;;;;14.10;5.28;;;8.50;81.10;;;;;;5012315;28;20109;-84
2020/12/27 12:23:54;;;;;;;16.45;5.38;;;8.60;81.20;;;;;;4992720;28;20037;-80
2020/12/27 12:26:21;;;;;;;13.52;5.43;;;8.60;81.20;;;;;;4991804;28;20087;-83
2020/12/27 12:28:47;;;;;;;16.67;5.78;;;8.50;81.00;;;;;;5003055;28;20058;-85
2020/12/27 12:31:14;;;;;;;10.25;4.65;;;8.60;81.20;;;;;;4998886;28;20029;-80
2020/12/27 12:33:40;;;;;;;11.23;4.68;;;8.50;81.00;;;;;;5002576;28;20023;-87
2020/12/27 12:36:07;;;;;;;18.38;7.55;;;8.60;81.10;;;;;;4980613;28;20137;-87
2020/12/27 12:38:33;;;;;;;13.15;10.55;;;8.50;81.00;;;;;;5005866;28;20054;-85
2020/12/27 12:40:59;;;;;;;23.13;10.25;;;8.60;81.30;;;;;;4976985;28;20027;-84
2020/12/27 12:43:30;;;;;;;16.90;7.85;;;8.60;81.30;;;;;;5023658;28;20107;-81
2020/12/27 12:45:59;;;;;;;14.45;7.82;;;8.70;81.40;;;;;;5004736;28;20038;-82
2020/12/27 12:48:26;;;;;;;15.02;8.40;;;8.70;81.40;;;;;;5031187;28;20030;-88
2020/12/27 12:50:52;;;;;;;17.90;8.18;;;8.70;81.40;;;;;;5017420;28;20057;-89
2020/12/27 12:53:18;;;;;;;14.55;6.90;;;8.70;81.30;;;;;;5017640;28;20111;-83
2020/12/27 12:55:44;;;;;;;19.02;7.90;;;8.70;81.30;;;;;;4999606;28;20168;-85
2020/12/27 12:58:10;;;;;;;12.82;7.20;;;8.70;81.30;;;;;;5017858;28;20030;-88
2020/12/27 13:00:36;;;;;;;15.00;8.00;;;8.70;81.30;;;;;;5017441;28;20038;-86
2020/12/27 13:03:02;;;;;;;15.10;7.18;;;8.70;81.30;;;;;;5018933;28;20057;-92
2020/12/27 13:05:28;;;;;;;15.55;7.05;;;8.70;81.30;;;;;;5001550;28;20029;-92
2020/12/27 13:07:54;;;;;;;16.48;6.30;;;8.70;81.30;;;;;;4997533;28;20057;-83
2020/12/27 13:10:20;;;;;;;11.50;6.18;;;8.70;81.40;;;;;;5014288;28;20049;-85
2020/12/27 13:12:46;;;;;;;16.67;6.80;;;8.70;81.30;;;;;;5000051;28;20033;-83
2020/12/27 13:15:12;;;;;;;10.00;5.97;;;8.70;81.30;;;;;;5007666;28;20030;-81